New Listings | Alphabetical Listings | Market Rank Listings | PPM Schedule | Arbitrends Schedule | Menu

Nielsen Audio Ratings

Market Rank: 1-50 | 51-100 | 101-150 | 151-200 | 201-250 | 251-300

Rank Market Posted Survey 12+
Population
110 Chattanooga TN 05-26-16 4S 469,700
105 Huntsville AL 05-26-16 4S 479,400
90 Colorado Springs CO 05-25-16 4S 559,900
100 Madison WI 05-25-16 4S 514,200
96 Mobile AL 05-25-16 4S 521,000
98 Toledo OH 05-25-16 4S 517,300
101 Wichita KS 05-25-16 4S 500,700
86 Columbia SC 05-24-16 4S 582,800
72 Des Moines IA 05-24-16 4S 696,400
85 Greenville-New Bern NC 05-24-16 4S 591,100
83 Little Rock AR 05-24-16 4S 593,100
84 Monterey-Salinas CA 05-24-16 4S 592,300
93 Spokane WA 05-24-16 4S 539,700
92 Springfield MA 05-24-16 4S 546,100
80 Akron OH 05-23-16 4S 612,100
77 Bakersfield CA 05-23-16 4S 636,300
78 Charleston SC 05-23-16 4S 620,700
82 Harrisburg-Lebanon-Carlisle PA 05-23-16 4S 599,600
75 Omaha-Council Bluffs NE 05-23-16 4S 684,800
111 York PA 05-23-16 4S 465,400
69 Albuquerque NM 05-20-16 4S 751,700
70 Allentown-Bethlehem PA 05-20-16 4S 714,900
74 El Paso TX 05-20-16 4S 689,900
67 Fresno CA 05-20-16 4S 783,900
63 Honolulu HI 05-20-16 4S 849,000
108 Johnson City-Kingsport TN 05-20-16 4S 470,200
71 Knoxville TN 05-20-16 4S 704,900
73 Wilkes Barre-Scranton PA 05-20-16 4S 693,400
64 Dayton OH 05-19-16 4S 837,500

68 Grand Rapids MI 05-19-16 4S 757,900
62 Tucson AZ 05-19-16 4S 855,700
66 Tulsa OK 05-19-16 4S 799,600
65 Albany-Schenectady-Troy NY 05-18-16 4S 810,600
89 Syracuse 05-18-16 4S 570,700
60 Birmingham AL 05-17-16 4S 911,400
57 Buffalo-Niagara Falls NY 05-17-16 4S 985,900
59 Greenville-Spartanburg SC 05-17-16 4S 924,300
55 Richmond VA 05-17-16 4S 1,015,900
58 Rochester NY 05-17-16 4S 967,000
81 Baton Rouge LA 05-16-16 4S 609,500
54 Louisville KY 05-16-16 4S 1,022,800
47 New Orleans LA 05-16-16 4S 1,234,600
48 Oklahoma City OK 05-16-16 4S 1,218,300
15 Puerto Rico 05-16-16 4S 3,125,800
35 Austin TX 05-12-16 PPM 1,605,600
46 Greensboro-Winston-Salem-High Point NC 05-12-16 PPM 1,249,100
52 Hartford-New Britain CT 05-12-16 PPM 1,081,100
39 Indianapolis IN 05-12-16 PPM 1,496,100
50 Jacksonville FL 05-12-16 PPM 1,203,900
51 Memphis TN 05-12-16 PPM 1,117,800
40 Milwaukee-Racine WI 05-12-16 PPM 1,491,600
45 Nashville TN 05-12-16 PPM 1,369,200
43 Norfolk-VA Beach-Newport News VA 05-12-16 PPM 1,397,200
44 Providence RI 05-12-16 PPM 1,396,
42 Raleigh-Durham NC 05-12-16 PPM 1,467,500
49 West Palm Beach FL 05-12-16 PPM 1,217,200
24 Charlotte-Gastonia NC 05-11-16 PPM 2,151
30 Cincinnati OH 05-11-16 PPM 1,795,300
31 Cleveland OH 05-11-16 PPM 1,774,000

37 Columbus OH 05-11-16 PPM 1,593,900
34 Kansas City MO 05-11-16 PPM 1,687,000
32 Las Vegas NV 05-11-16 PPM 1,733,000
33 Orlando FL 05-11-16 PPM 1,718,200
26 Pittsburgh PA 05-11-16 PPM 2,009,200
23 Portland OR 05-11-16 PPM 2,212,100
28 Sacramento CA 05-11-16 PPM 1,928,300
29 Salt Lake City UT 05-11-16 PPM 1,824,300
27 San Antonio TX 05-11-16 PPM 1,939,800
21 Baltimore MD 05-10-16 PPM 2,389,300
10 Boston MA 05-10-16 PPM 4,192,800
18 Denver-Boulder CO 05-10-16 PPM 2,546,800
12 Detroit MI 05-10-16 PPM 3,803,600
11 Miami-Fort Lauderdale FL 05-10-16 PPM 3,906,200
16 Minneapolis-St. Paul MN 05-10-16 PPM 2,875,600
14 Phoenix AZ 05-10-16 PPM 3,419,800
17 San Diego CA 05-10-16 PPM 2,755,000
13 Seattle-Tacoma WA 05-10-16 PPM 3,638,000
22 St. Louis MO 05-10-16 PPM 2,328,700
19 Tampa-St. Petersburg FL 05-10-16 PPM 2,531,900
7 Washington DC 05-10-16 PPM 4,793,400
9 Atlanta GA 05-09-16 PPM 4,549,700
3 Chicago IL 05-09-16 PPM 7,939,500
5 Dallas-Ft. Worth TX 05-09-16 PPM 5,633,600
6 Houston-Galveston TX 05-09-16 PPM 5,362,100
2 Los Angeles CA 05-09-16 PPM 11,271,300
41 Middlesex-Somerset-Union 05-09-16 PPM 1,470,800
20 Nassau-Suffolk NY 05-09-16 PPM 2,464,300
1 New York NY 05-09-16 PPM 16,157,500
8 Philadelphia PA 05-09-16 PPM 4,558,200

25 Riverside-San Bernardino CA 05-09-16 PPM 2,010,900
4 San Francisco CA 05-09-16 PPM 6,463,500
36 San Jose CA 05-09-16 PPM 1,596,400
126 Jackson MS 04-28-16 4S 412,600
134 Shreveport LA 04-28-16 4S 350,000
273 Beckley WV 01-27-16 2A 67,400
260 Bismarck ND 01-27-16 2A 103,700
267 Bluefield WV 01-27-16 2A 91,600
255 Harrisonburg VA 01-27-16 2A 114,100
270 Jackson TN 01-27-16 2A 83,500
227 Jonesboro AR 01-27-16 2A 157,300
256 Rapid City SD 01-27-16 2A 114,000
265 San Angelo TX 01-27-16 2A 97,200
262 Sioux City IA 01-27-16 2A 100,700
249 Wichita Falls TX 01-27-16 2A 120,000
237 Abilene TX 01-26-16 2A 142,500
241 Billings MT 01-26-16 2A 132,600
233 Columbia MO 01-26-16 2A 149,700
236 Eau Claire WI 01-26-16 2A 142,500
252 Grand Island-Kearney-Hastings NE 01-26-16 2A 117,500
248 Grand Junction CO 01-26-16 2A 125,800
234 Joplin MO 01-26-16 2A 145,900
220 La Crosse WI 01-26-16 2A 164,800
226 Lafayette IN 01-26-16 2S 157,400
242 Monroe LA 01-26-16 2A 130,400
231 Panama City FL 01-26-16 2A 151,500
244 Parkersburg-Marietta WV 01-26-16 2A 127,800
222 Rochester MN 01-26-16 2A 160,900
246 Wheeling WV 01-26-16 2S 126,900
209 Bend OR 01-25-16 2A 180,400

205 Cedar Rapids IA 01-25-16 2S 183,700
203 Chico CA 01-25-16 2A 194,200
211 Duluth-Superior MN-WI 01-25-16 2S 179,600
201 Fargo-Moorhead ND-MN 01-25-16 2S 196,900
216 Florence SC 01-25-16 2A 174,400
272 Grand Forks ND 01-25-16 2A 79,500
189 Laredo TX 01-25-16 2A 210,600
207 Medford-Ashland OR 01-25-16 2A 180,900
239 Waterloo-Cedar Falls IA 01-25-16 2A 135,500
213 Winchester VA 01-25-16 2A 176,300
198 Yakima WA 01-25-16 2A 200,900
168 Amarillo TX 01-22-16 2A 255,000
194 Bryan-College Station TX 01-22-16 2A 207,100
191 Cape Cod MA 01-22-16 2A 208,500
179 Columbus GA 01-22-16 2S 235,200
192 Frederick MD 01-22-16 2C 207,900
172 Lubbock TX 01-22-16 2S 247,300
171 Odessa-Midland TX 01-22-16 2A 251,700
229 Redding CA 01-22-16 2A 154,900
264 Sheboygan WI 01-22-16 2A 98,000
212 Terre Haute IN 01-22-16 2S 177,200
182 Tri-Cities WA 01-22-16 2A 226,000
195 Waco TX 01-22-16 2A 205,200
170 Anchorage AK 01-21-16 2S 253,000
187 Binghamton NY 01-21-16 2S 215,000
188 Charleston WV 01-21-16 2S 213,700
175 Erie PA 01-21-16 2S 240,100
151 Eugene-Springfield OR 01-21-16 2S 315,400
164 Evansville IN 01-21-16 2S 268,000
156 Flagstaff-Prescott AZ 01-21-16 2A 310,800

163 Huntington-Ashland WV 01-21-16 2S 268,800
132 Macon GA 01-21-16 2S 368,900
173 Morgantown-Clarksburg-Fairmont WV 01-21-16 2A 246,300
160 Rockford IL 01-21-16 2S 288,400
162 Tallahassee FL 01-21-16 2S 275,900
251 Valdosta GA 01-21-16 2A 118,800
176 Wausau-Stevens Point WI (Central Wiscons 01-21-16 2A 239,700
240 Albany GA 01-20-16 2A 134,000
153 Ann Arbor MI 01-20-16 2A 312,800
142 Beaumont-Port Arthur TX 01-20-16 2A 331,900
230 Bloomington IL 01-20-16 2S 151,700
190 Dothan AL 01-20-16 2A 210,300
232 Hilton Head SC 01-20-16 2C 151,400
141 Killeen-Temple TX 01-20-16 2A 335,500
243 LaSalle-Peru IL 01-20-16 2A 129,400
221 Lake Charles LA 01-20-16 2A 163,900
158 Montgomery AL 01-20-16 2S 303,200
181 New Bedford-Fall River MA 01-20-16 2C 229,000
157 Peoria IL 01-20-16 2S 308,800
155 Quad Cities IL 01-20-16 2S 312,300
140 Salisbury-Ocean City MD 01-20-16 2S 338,800
154 Savannah GA 01-20-16 2S 312,600
137 Springfield MO 01-20-16 2S 346,200
139 Appleton-Oshkosh WI 01-19-16 2S 342,400
106 Corpus Christi TX 01-19-16 2S 472,100
129 Fayetteville (North West Arkansas) AR 01-19-16 2A 397,600
130 Fayetteville NC 01-19-16 2S 386,100
135 Flint MI 01-19-16 2S 348,300
186 Green Bay WI 01-19-16 2S 215,700
128 Lansing-East Lansing MI 01-19-16 2S 405,200
133 Reading PA 01-19-16 2A 353,300
125 Reno NV 01-19-16 2S 418,600
143 Saginaw-Bay City-Midland MI 01-19-16 2A 331,500
253 Texarkana TX-AR 01-19-16 2A 116,300
144 Tyler-Longview TX 01-19-16 2S 329,800
131 Youngstown-Warren OH 01-19-16 2S 379,300
124 Bridgeport CT 01-15-16 2S 418,800
271 Cheyenne WY 01-15-16 2A 82,200
114 Fort Collins-Greeley CO 01-15-16 2A 447,600
118 Modesto CA 01-15-16 2S 437,200
119 Morristown NJ 01-15-16 2C 434,100
122 New Haven CT 01-15-16 2S 430,200
121 Oxnard-Ventura CA 01-15-16 2S 430,400
138 Palm Springs CA 01-15-16 2S 344,500
174 San Luis Obispo CA 01-15-16 2A 244,300
208 Santa Barbara CA 01-15-16 2A 180,600
204 Santa Maria-Lompoc CA 01-15-16 2A 193,100
183 South Bend IN 01-15-16 2S 224,800
115 Victor Valley 01-15-16 2S 444,600
149 Atlantic City NJ 01-14-16 2S 320,800

109 Augusta GA 01-14-16 2S 469,800
245 Florence-Muscle Shoals AL 01-14-16 2A 127,500
113 Fort Wayne IN 01-14-16 2S 448,600
102 Lexington-Fayette KY 01-14-16 2S 496,700
103 Melbourne-Titusville-Cocoa FL 01-14-16 2S 491,600
218 Muncie-Marion IN 01-14-16 2A 172,400
116 Roanoke-Lynchburg VA 01-14-16 2S 442,600
247 Sussex NJ 01-14-16 2A 126,200
150 Trenton NJ 01-14-16 2S 320,200
117 Worcester MA 01-14-16 2S 441,900
97 Boise ID 01-13-16 2S 520,500
94 Daytona Beach FL 01-13-16 2S 538,200
99 Fort Pierce-Stuart FL 01-13-16 2S 515,500
185 Fort Walton Beach FL 01-13-16 2A 222,400
95 Lakeland-Winter Haven FL 01-13-16 2S 537,900
127 Pensacola FL 01-13-16 2S 406,700
238 Pueblo CO 01-13-16 2S 138,200
196 Salina-Manhattan KS 01-13-16 2A 203,700
202 Topeka KS 01-13-16 2S 196,600
250 Twin Falls-Sun Valley, ID 01-13-16 H 2C
88 Gainesville-Ocala FL 01-12-16 2S 573,300
269 Hot Springs AR 01-12-16 2A 84,300
87 Stockton CA 01-12-16 2S 581,200
136 Canton OH 01-11-16 2S 347,600
166 Hagerstown-Chambersburg MD 01-11-16 2A 258,800
112 Lancaster PA 01-11-16 2S 448,800
169 Lincoln NE 01-11-16 2S 254,000
152 Myrtle Beach SC 01-11-16 2A 313,300
178 New London CT 01-11-16 2A 238,700
79 Wilmington DE 01-11-16 2S 616,300

214 Las Cruces NM 01-08-16 2A 176,300
180 Merced CA 01-08-16 2A 230,100
104 Visalia-Tulare-Hanford CA 01-08-16 2S 488,100
261 Williamsport PA 01-08-16 2A 101,200
254 Battle Creek MI 01-07-16 2A 114,300
199 Danbury CT 01-07-16 2A 199,500
61 Ft. Myers-Naples-Marco Island FL 01-07-16 2S 899,900
161 Ft. Smith AR 01-07-16 2A 282,500
184 Kalamazoo MI 01-07-16 2S 222,500
228 Lima OH 01-07-16 2A 156,200
56 McAllen-Brownsville TX 01-07-16 2S 993,000
235 Muskegon MI 01-07-16 2A 144,500
76 Sarasota-Bradenton FL 01-07-16 2S 663,900
148 Stamford-Norwalk CT 01-07-16 2A 322,600
259 Augusta-Waterville ME 01-06-16 2A 105,500
219 Bangor ME 01-06-16 2S 168,400
145 Burlington-Plattsburgh VT-NY 01-06-16 2S 328,100
177 Concord (Lakes Region) 01-06-16 2S 239,400
38 Hudson Valley 01-06-16 2S 1,504,000
225 Lebanon-Hanover-White River Junction, NH 01-06-16 2A 157,800
200 Manchester NH 01-06-16 2S 199,200
258 Montpelier-Barre-St. Johnsbury VT 01-06-16 2S 108,000
91 Portland ME 01-06-16 2S 548,500
123 Portsmouth-Dover NH 01-06-16 2S 422,200
165 Poughkeepsie NY 01-06-16 2A 259,000
167 Utica-Rome NY 01-06-16 2S 256,600
159 Asheville NC 01-05-16 2S 290,600
206 Charlottesville, VA 01-05-16 B 2C
224 Elmira-Corning NY 01-05-16 2A 159,800
146 Fredericksburg VA 01-05-16 2S 325,000

215 Tuscaloosa AL 01-05-16 2A 175,000
147 Biloxi-Gulfport-Pascagoula MS 01-04-16 2S 324,700
107 Lafayette LA 01-04-16 2S 471,800
217 Laurel-Hattiesburg MS 01-04-16 2A 172,700
266 Decatur IL 08-29-15 2A 92,300
223 Olean NY 08-29-15 2A 160,500
263 Watertown NY 08-29-15 2A 98,500
210 Champaign IL 08-04-15 2A 179,800
268 Brunswick GA 07-30-15 2A 84,700
120 Santa Rosa CA 07-28-15 2S 431,100
53 Monmouth-Ocean NJ 07-14-15 4S 1,039,100
193 Tupelo MS 01-07-15 2A 207,300
197 Traverse City-Petoskey MI 01-24-13 2A 201,400
257 Altoona PA 08-08-12 2S 108,500

Survey Key:
PPM - Portable People Meter
4S - Diary Standard Continuous Measurement
2S - Diary Standard Measurement
2C - Diary Condensed Measurement
2A - Diary 2-book Average

Ratings profiles are Copyright © 2006 Nielsen Audio. May not be quoted or reproduced without the prior written permission of Nielsen Audio.

Return to Menu
Copyright © 1989-2006 RADIO ONLINE ®

Sponsored Links
Radio Station Data For Less
Radio station data for all of the rated markets. Top 400 Metros-Over 12,000 AM/FM/HD $299 includes 1 year free updates.
Radio Station Data For Less
Radio station data for all of the rated markets. Top 400 Metros-Over 12,000 AM/FM/HD $299 includes 1 year free updates.